Alyth, United Kingdom
Current Conditions -  °F | °C
As of 6:20 PM on Wednesday 26 Nov 2014 (Local Time) from EGPN Reporting Station
Light Rain Light Rain  
Wind Chill: 43°   Ceiling: 1100
Heat Index: 43°   Visibility: 2.8mi
Dew Point: 43°   Wind: 3mph
Humidity: 100%   Direction: 280°W
Pressure: 29.85"   Gusts: NA
Location:  56.62°N, 3.23°W
Report Text: EGPN 261820Z 28003KT 4500 -RADZ BR BKN011 06/06 Q1011
Loading
Personal Weather Stations






























Interactive Weather Map New forecast layout! Learn more

10-Day Weather Forecast

Advertisements
Track Severe Weather on mobile